Time;durP1;ratioP1;P1;durP2;ratioP2;P2;SDS_P1;SDS_P2;PMS_P1;PMS_P2;Temp;Humidity;BMP_temperature;BMP_pressure;BME280_temperature;BME280_humidity;BME280_pressure;Samples;Min_cycle;Max_cycle;Signal;HPM_P1;HPM_P2
2022/01/16 00:01:35;;;;;;;19.92;8.95;;;27.50;99.90;;;;;;5034212;28;20478;-66
2022/01/16 00:04:11;;;;;;;19.60;8.30;;;27.50;99.90;;;;;;5021903;28;20021;-66
2022/01/16 00:06:42;;;;;;;19.35;8.27;;;27.50;99.90;;;;;;5033981;28;20036;-66
2022/01/16 00:09:10;;;;;;;17.92;7.95;;;27.50;99.90;;;;;;5033616;28;20053;-66
2022/01/16 00:11:38;;;;;;;15.38;7.70;;;27.50;99.90;;;;;;5029259;28;20038;-66
2022/01/16 00:14:06;;;;;;;17.42;8.00;;;27.60;99.90;;;;;;5016335;28;20026;-66
2022/01/16 00:16:33;;;;;;;15.40;7.80;;;27.50;99.90;;;;;;5035131;28;20025;-66
2022/01/16 00:19:01;;;;;;;22.00;8.65;;;27.50;99.90;;;;;;5033681;28;20030;-66
2022/01/16 00:21:32;;;;;;;17.23;8.63;;;27.40;99.90;;;;;;5024992;28;20402;-66
2022/01/16 00:24:00;;;;;;;19.13;8.85;;;27.20;99.90;;;;;;5015695;28;20022;-66
2022/01/16 00:26:27;;;;;;;20.25;8.40;;;27.00;99.90;;;;;;5014763;28;20048;-67
2022/01/16 00:28:55;;;;;;;18.25;8.80;;;26.80;99.90;;;;;;5021670;28;20124;-66
2022/01/16 00:31:24;;;;;;;18.75;8.93;;;26.70;99.90;;;;;;5017121;28;20053;-66
2022/01/16 00:33:52;;;;;;;15.98;8.38;;;26.70;99.90;;;;;;5014615;28;20026;-66
2022/01/16 00:36:21;;;;;;;18.05;8.95;;;26.50;99.90;;;;;;5027192;28;20022;-66
2022/01/16 00:38:50;;;;;;;15.40;7.90;;;26.40;99.90;;;;;;5033330;28;20105;-66
2022/01/16 00:41:19;;;;;;;15.25;8.95;;;26.40;99.90;;;;;;5032245;28;20032;-66
2022/01/16 00:43:48;;;;;;;16.17;9.48;;;26.40;99.90;;;;;;5023036;28;20030;-66
2022/01/16 00:46:16;;;;;;;15.75;8.25;;;26.40;99.90;;;;;;5015957;28;20072;-66
2022/01/16 00:48:44;;;;;;;14.48;8.27;;;26.50;99.90;;;;;;5027966;28;20107;-67
2022/01/16 00:51:12;;;;;;;17.45;8.57;;;26.70;99.90;;;;;;5033997;28;20030;-66
2022/01/16 00:53:42;;;;;;;18.02;9.18;;;26.80;99.90;;;;;;5034371;28;20099;-67
2022/01/16 00:56:10;;;;;;;19.30;8.75;;;26.70;99.90;;;;;;5033288;28;20030;-66
2022/01/16 00:58:37;;;;;;;18.00;7.97;;;26.70;99.90;;;;;;5034244;28;20458;-67
2022/01/16 01:01:05;;;;;;;19.27;9.68;;;26.80;99.90;;;;;;5033164;28;20080;-66
2022/01/16 01:03:32;;;;;;;16.75;8.77;;;26.90;99.90;;;;;;5032850;28;20456;-67
2022/01/16 01:05:59;;;;;;;17.15;8.38;;;26.90;99.90;;;;;;5031794;28;20104;-66
2022/01/16 01:08:28;;;;;;;20.83;8.73;;;26.80;99.90;;;;;;5028942;28;20558;-66
2022/01/16 01:10:57;;;;;;;15.95;8.85;;;27.00;99.90;;;;;;5030932;28;20025;-66
2022/01/16 01:13:34;;;;;;;20.92;9.13;;;27.00;99.90;;;;;;5031396;28;20071;-66
2022/01/16 01:16:04;;;;;;;17.90;7.85;;;26.80;99.90;;;;;;5026342;28;20030;-66
2022/01/16 01:18:35;;;;;;;18.20;8.23;;;27.10;99.90;;;;;;5013961;28;20026;-66
2022/01/16 01:21:05;;;;;;;16.38;8.00;;;27.20;99.90;;;;;;5031991;28;20029;-66
2022/01/16 01:23:33;;;;;;;13.77;7.78;;;27.50;99.90;;;;;;5032858;28;20041;-67
2022/01/16 01:26:00;;;;;;;18.80;8.40;;;27.30;99.90;;;;;;5028126;28;20021;-67
2022/01/16 01:28:27;;;;;;;14.05;6.95;;;27.30;99.90;;;;;;5033354;28;20033;-67
2022/01/16 01:30:55;;;;;;;18.95;8.20;;;27.40;99.90;;;;;;5031492;28;20057;-66
2022/01/16 01:33:24;;;;;;;14.75;6.70;;;27.50;99.90;;;;;;5027472;28;20498;-66
2022/01/16 01:35:51;;;;;;;17.40;6.35;;;27.80;99.90;;;;;;5029987;28;20025;-67
2022/01/16 01:38:20;;;;;;;15.20;7.43;;;27.80;99.90;;;;;;5032687;28;20033;-66
2022/01/16 01:40:48;;;;;;;18.30;6.38;;;27.70;99.90;;;;;;5032208;28;20374;-66
2022/01/16 01:51:23;;;;;;;19.60;6.38;;;27.50;99.90;;;;;;5013568;28;20104;-67
2022/01/16 01:53:56;;;;;;;12.65;6.57;;;27.50;99.90;;;;;;5013607;28;20046;-66
2022/01/16 01:56:25;;;;;;;17.67;6.93;;;27.50;99.90;;;;;;5013437;28;20026;-67
2022/01/16 01:58:55;;;;;;;13.23;5.82;;;27.40;99.90;;;;;;5013486;28;20017;-66
2022/01/16 02:01:23;;;;;;;13.52;6.65;;;27.50;99.90;;;;;;5032034;28;20350;-67
2022/01/16 02:03:51;;;;;;;14.20;5.68;;;27.80;99.90;;;;;;5031690;28;20454;-66
2022/01/16 02:06:36;;;;;;;14.18;5.65;;;27.50;99.90;;;;;;5031498;28;20121;-67
2022/01/16 02:09:06;;;;;;;26.52;6.68;;;27.50;99.90;;;;;;5029213;28;20022;-67
2022/01/16 02:11:35;;;;;;;19.63;5.95;;;27.50;99.90;;;;;;5030907;28;20037;-67
2022/01/16 02:28:23;;;;;;;14.63;5.57;;;27.20;99.90;;;;;;5030483;28;20044;-67
2022/01/16 02:36:33;;;;;;;11.80;4.68;;;27.30;99.90;;;;;;5022641;28;20440;-66
2022/01/16 02:39:13;;;;;;;17.07;5.77;;;27.70;99.90;;;;;;5015609;28;20022;-66
2022/01/16 02:41:41;;;;;;;14.23;5.57;;;28.00;99.90;;;;;;5029676;28;20474;-67
2022/01/16 02:44:22;;;;;;;14.10;5.18;;;28.00;99.90;;;;;;5028093;28;20039;-66
2022/01/16 02:46:50;;;;;;;19.00;5.22;;;28.20;99.90;;;;;;5032234;28;20033;-66
2022/01/16 02:49:27;;;;;;;13.77;4.65;;;28.30;99.90;;;;;;5031822;28;20521;-67
2022/01/16 02:52:01;;;;;;;22.98;6.18;;;28.40;99.90;;;;;;5031864;28;20041;-67
2022/01/16 02:54:30;;;;;;;13.75;5.05;;;28.10;99.90;;;;;;5030972;28;20022;-66
2022/01/16 02:56:58;;;;;;;13.75;4.68;;;28.10;99.90;;;;;;5031193;28;20033;-66
2022/01/16 02:59:25;;;;;;;10.68;4.95;;;28.00;99.90;;;;;;5030805;28;20466;-66
2022/01/16 03:01:53;;;;;;;18.52;5.15;;;27.70;99.90;;;;;;5027375;28;20478;-66
2022/01/16 03:04:20;;;;;;;16.35;4.57;;;28.10;99.90;;;;;;5029262;28;20104;-66
2022/01/16 03:06:48;;;;;;;15.35;4.82;;;28.30;99.90;;;;;;5031336;28;20104;-67
2022/01/16 03:09:17;;;;;;;13.77;5.45;;;28.00;99.90;;;;;;5030832;28;20048;-67
2022/01/16 03:11:49;;;;;;;15.48;4.80;;;28.00;99.90;;;;;;5032095;28;20150;-66
2022/01/16 03:14:21;;;;;;;16.45;5.15;;;28.10;99.90;;;;;;5026363;28;20025;-67
2022/01/16 03:16:52;;;;;;;13.25;4.88;;;28.00;99.90;;;;;;5032260;28;20025;-66
2022/01/16 03:22:06;;;;;;;17.30;4.18;;;27.80;99.90;;;;;;5032354;28;20091;-64
2022/01/16 03:24:36;;;;;;;20.23;5.18;;;28.10;99.90;;;;;;5031219;28;20029;-66
2022/01/16 03:27:10;;;;;;;14.82;4.85;;;28.10;99.90;;;;;;5031845;28;20030;-66
2022/01/16 03:29:39;;;;;;;17.25;4.82;;;28.20;99.90;;;;;;5031761;28;20013;-65
2022/01/16 03:32:10;;;;;;;11.20;4.90;;;27.70;99.90;;;;;;5036253;28;20108;-65
2022/01/16 03:34:38;;;;;;;19.55;5.22;;;27.50;99.90;;;;;;5034684;28;20025;-65
2022/01/16 03:37:06;;;;;;;14.80;4.30;;;27.50;99.90;;;;;;5034404;28;20029;-67
2022/01/16 03:39:34;;;;;;;14.98;5.05;;;27.40;99.90;;;;;;5032204;28;20037;-68
2022/01/16 03:42:01;;;;;;;24.98;5.47;;;27.40;99.90;;;;;;5026590;28;20092;-69
2022/01/16 03:44:29;;;;;;;16.50;5.40;;;27.20;99.90;;;;;;5020547;28;20022;-65
2022/01/16 03:46:57;;;;;;;13.55;4.45;;;27.10;99.90;;;;;;5035153;28;20053;-65
2022/01/16 03:49:29;;;;;;;12.82;3.75;;;27.10;99.90;;;;;;5034418;28;20451;-65
2022/01/16 03:51:57;;;;;;;16.35;4.88;;;27.10;99.90;;;;;;5035584;28;20022;-66
2022/01/16 03:54:28;;;;;;;13.75;4.55;;;26.90;99.90;;;;;;5034502;28;20389;-66
2022/01/16 03:56:57;;;;;;;16.17;4.25;;;26.80;99.90;;;;;;5034399;28;20026;-65
2022/01/16 03:59:24;;;;;;;11.35;3.58;;;26.80;99.90;;;;;;5031170;28;20469;-66
2022/01/16 04:01:52;;;;;;;14.05;4.00;;;26.60;99.90;;;;;;5035217;28;20397;-65
2022/01/16 04:04:19;;;;;;;13.65;4.28;;;26.80;99.90;;;;;;5034405;28;20025;-66
2022/01/16 04:06:46;;;;;;;9.82;3.78;;;26.80;99.90;;;;;;5031258;28;20029;-65
2022/01/16 04:09:14;;;;;;;16.63;6.07;;;26.70;99.90;;;;;;5032874;28;20032;-66
2022/01/16 04:11:50;;;;;;;18.00;6.03;;;26.80;99.90;;;;;;5035042;28;20026;-66
2022/01/16 04:14:23;;;;;;;18.88;4.75;;;26.80;99.90;;;;;;5033459;28;20044;-66
2022/01/16 04:16:52;;;;;;;16.13;4.60;;;26.90;99.90;;;;;;5033946;28;20026;-66
2022/01/16 04:19:21;;;;;;;13.65;4.32;;;26.90;99.90;;;;;;5033431;28;20033;-66
2022/01/16 04:21:48;;;;;;;14.93;4.30;;;27.00;99.90;;;;;;5033146;28;20143;-66
2022/01/16 04:24:16;;;;;;;15.13;4.50;;;26.90;99.90;;;;;;5026863;28;20102;-65
2022/01/16 04:26:43;;;;;;;16.88;4.20;;;26.80;99.90;;;;;;5015446;28;20394;-67
2022/01/16 04:29:11;;;;;;;18.52;3.88;;;26.50;99.90;;;;;;5024949;28;20034;-66
2022/01/16 04:31:38;;;;;;;14.50;3.88;;;26.40;99.90;;;;;;5034371;28;20519;-65
2022/01/16 04:34:05;;;;;;;15.93;4.70;;;26.20;99.90;;;;;;5033843;28;20033;-66
2022/01/16 04:36:32;;;;;;;20.92;4.30;;;26.50;99.90;;;;;;5033222;28;20079;-66
2022/01/16 04:39:00;;;;;;;17.17;5.03;;;26.30;99.90;;;;;;5032358;28;20026;-66
2022/01/16 04:44:13;;;;;;;18.48;4.80;;;26.50;99.90;;;;;;5032879;28;20107;-66
2022/01/16 04:46:40;;;;;;;14.95;3.90;;;26.60;99.90;;;;;;5029364;28;20029;-66
2022/01/16 04:49:07;;;;;;;20.15;5.88;;;26.50;99.90;;;;;;5033906;28;20025;-66
2022/01/16 04:51:35;;;;;;;15.35;4.60;;;26.30;99.90;;;;;;5024572;28;20030;-66
2022/01/16 04:54:02;;;;;;;11.35;4.53;;;26.40;99.90;;;;;;5021836;28;20026;-66
2022/01/16 04:56:29;;;;;;;13.38;3.85;;;26.50;99.90;;;;;;5034594;28;20044;-66
2022/01/16 04:58:57;;;;;;;18.85;4.35;;;26.40;99.90;;;;;;5033225;28;20509;-67
2022/01/16 05:01:25;;;;;;;14.18;4.43;;;26.20;99.90;;;;;;5019105;28;20053;-66
2022/01/16 05:07:14;;;;;;;13.70;4.57;;;26.30;99.90;;;;;;5034244;28;20180;-66
2022/01/16 05:09:41;;;;;;;14.43;5.88;;;26.20;99.90;;;;;;5033243;28;20423;-66
2022/01/16 05:12:23;;;;;;;16.48;4.68;;;26.10;99.90;;;;;;5025906;28;20034;-66
2022/01/16 05:17:36;;;;;;;16.02;4.72;;;26.20;99.90;;;;;;5019694;28;20028;-65
2022/01/16 05:20:04;;;;;;;17.58;4.30;;;26.20;99.90;;;;;;5026707;28;20045;-66
2022/01/16 05:22:31;;;;;;;15.85;4.40;;;26.20;99.90;;;;;;5019183;28;20049;-66
2022/01/16 05:24:58;;;;;;;18.38;4.70;;;26.40;99.90;;;;;;5023069;28;20017;-66
2022/01/16 05:27:26;;;;;;;14.60;4.22;;;26.40;99.90;;;;;;5033499;28;20402;-65
2022/01/16 05:29:53;;;;;;;13.75;4.65;;;26.40;99.90;;;;;;5032523;28;20033;-65
2022/01/16 05:32:20;;;;;;;13.80;5.07;;;26.50;99.90;;;;;;5033538;28;20041;-66
2022/01/16 05:34:47;;;;;;;15.68;4.70;;;26.40;99.90;;;;;;5032060;28;20419;-65
2022/01/16 05:37:18;;;;;;;15.85;4.60;;;26.50;99.90;;;;;;5033501;28;20025;-65
2022/01/16 05:39:47;;;;;;;13.88;4.15;;;26.40;99.90;;;;;;5032708;28;20013;-65
2022/01/16 05:42:15;;;;;;;15.38;4.95;;;26.40;99.90;;;;;;5032249;28;20036;-66
2022/01/16 05:44:43;;;;;;;20.98;4.97;;;26.40;99.90;;;;;;5031728;28;20390;-65
2022/01/16 05:47:12;;;;;;;14.65;5.05;;;26.40;99.90;;;;;;5030896;28;20045;-65
2022/01/16 05:49:43;;;;;;;17.77;4.13;;;26.40;99.90;;;;;;5032344;28;20022;-65
2022/01/16 05:52:12;;;;;;;21.65;4.97;;;26.30;99.90;;;;;;5032934;28;20061;-66
2022/01/16 05:54:39;;;;;;;16.95;5.80;;;26.30;99.90;;;;;;5030629;28;20458;-65
2022/01/16 05:57:07;;;;;;;17.90;5.25;;;26.40;99.90;;;;;;5017247;28;20072;-65
2022/01/16 05:59:35;;;;;;;18.90;5.53;;;26.60;99.90;;;;;;5031743;28;20105;-66
2022/01/16 06:02:03;;;;;;;20.95;5.35;;;26.80;99.90;;;;;;5033055;28;20030;-65
2022/01/16 06:04:30;;;;;;;15.98;5.20;;;26.80;99.90;;;;;;5024889;28;20496;-67
2022/01/16 06:06:58;;;;;;;15.38;4.57;;;26.80;99.90;;;;;;5023823;28;20116;-67
2022/01/16 06:09:26;;;;;;;10.52;3.50;;;26.70;99.90;;;;;;5018332;28;20074;-64
2022/01/16 06:11:55;;;;;;;10.25;4.28;;;26.50;99.90;;;;;;5024847;28;20042;-67
2022/01/16 06:14:23;;;;;;;11.45;4.07;;;26.20;99.90;;;;;;5023507;28;20661;-66
2022/01/16 06:16:52;;;;;;;21.10;5.03;;;25.80;99.90;;;;;;5020451;28;20030;-65
2022/01/16 06:19:20;;;;;;;19.83;6.30;;;25.50;99.90;;;;;;5028379;28;20405;-65
2022/01/16 06:21:48;;;;;;;19.77;5.80;;;25.30;99.90;;;;;;5028121;28;20060;-65
2022/01/16 06:24:16;;;;;;;19.05;4.95;;;25.20;99.90;;;;;;5040435;28;20421;-66
2022/01/16 06:26:43;;;;;;;19.50;5.68;;;25.30;99.90;;;;;;5018076;28;20033;-66
2022/01/16 06:29:11;;;;;;;23.17;5.40;;;25.60;99.90;;;;;;5021445;28;20017;-66
2022/01/16 06:31:38;;;;;;;20.08;5.13;;;25.90;99.90;;;;;;5013647;28;20030;-66
2022/01/16 06:34:06;;;;;;;19.52;5.25;;;26.10;99.90;;;;;;5017502;28;20029;-66
2022/01/16 06:36:35;;;;;;;15.25;4.65;;;26.50;99.90;;;;;;5020233;28;20049;-67
2022/01/16 06:39:05;;;;;;;13.82;4.13;;;27.00;99.90;;;;;;5016410;28;20093;-67
2022/01/16 06:41:34;;;;;;;13.85;4.80;;;27.40;99.90;;;;;;5016329;28;20050;-66
2022/01/16 06:44:02;;;;;;;18.10;4.88;;;27.50;99.90;;;;;;5014095;28;20100;-64
2022/01/16 06:46:29;;;;;;;20.90;5.50;;;27.20;99.90;;;;;;5025934;28;20036;-67
2022/01/16 06:48:57;;;;;;;15.30;5.15;;;27.20;99.90;;;;;;5015975;28;20482;-68
2022/01/16 06:51:25;;;;;;;10.77;3.33;;;27.10;99.90;;;;;;5020450;28;20382;-69
2022/01/16 06:53:55;;;;;;;17.95;4.13;;;27.30;99.90;;;;;;5031302;28;20113;-68
2022/01/16 06:56:23;;;;;;;18.20;4.93;;;26.60;99.90;;;;;;5015303;28;20014;-64
2022/01/16 06:58:51;;;;;;;12.90;3.60;;;26.40;99.90;;;;;;5031147;28;20021;-65
2022/01/16 07:01:18;;;;;;;17.90;4.65;;;26.40;99.90;;;;;;5012744;28;20026;-66
2022/01/16 07:03:51;;;;;;;24.63;5.45;;;26.20;99.90;;;;;;5016150;28;20030;-66
2022/01/16 07:06:19;;;;;;;11.85;3.65;;;26.30;99.90;;;;;;5024281;28;20026;-65
2022/01/16 07:08:49;;;;;;;18.38;4.53;;;26.20;99.90;;;;;;5027807;28;21364;-66
2022/01/16 07:11:17;;;;;;;15.02;4.72;;;26.00;99.90;;;;;;5022252;28;20049;-65
2022/01/16 07:13:45;;;;;;;12.18;4.63;;;25.80;99.90;;;;;;5026423;28;20021;-66
2022/01/16 07:16:12;;;;;;;16.50;5.00;;;25.80;99.90;;;;;;5028409;28;20129;-66
2022/01/16 07:18:39;;;;;;;19.35;4.70;;;25.60;99.90;;;;;;5016476;28;20080;-66
2022/01/16 07:21:13;;;;;;;16.30;4.18;;;25.70;99.90;;;;;;5034513;28;20084;-66
2022/01/16 07:23:49;;;;;;;20.60;6.05;;;25.70;99.90;;;;;;5024852;28;20025;-65
2022/01/16 07:26:17;;;;;;;15.43;4.93;;;25.70;99.90;;;;;;5029475;28;20100;-64
2022/01/16 07:28:45;;;;;;;14.52;4.97;;;25.70;99.90;;;;;;5019832;28;20030;-65
2022/01/16 07:31:13;;;;;;;18.67;5.38;;;25.80;99.90;;;;;;5015811;28;20022;-65
2022/01/16 07:33:40;;;;;;;15.20;4.20;;;25.80;99.90;;;;;;5019104;28;20036;-64
2022/01/16 07:36:07;;;;;;;15.32;5.00;;;25.70;99.90;;;;;;5030495;28;20018;-65
2022/01/16 07:38:35;;;;;;;15.63;4.60;;;26.10;99.90;;;;;;5015767;28;20034;-65
2022/01/16 07:41:03;;;;;;;18.23;5.57;;;26.10;99.90;;;;;;5034081;28;20042;-66
2022/01/16 07:43:31;;;;;;;19.08;6.22;;;26.20;99.90;;;;;;5019121;28;20091;-65
2022/01/16 07:45:58;;;;;;;14.95;4.35;;;26.10;99.90;;;;;;5029701;28;20021;-66
2022/01/16 07:48:26;;;;;;;15.48;5.05;;;26.40;99.90;;;;;;5035011;28;20041;-66
2022/01/16 07:50:54;;;;;;;19.40;4.85;;;26.30;99.90;;;;;;5020791;28;20033;-66
2022/01/16 07:53:21;;;;;;;17.20;4.82;;;25.80;99.90;;;;;;5025408;28;20112;-66
2022/01/16 07:55:48;;;;;;;21.58;5.53;;;25.50;99.90;;;;;;5032832;28;20026;-66
2022/01/16 07:58:15;;;;;;;16.65;4.63;;;25.40;99.90;;;;;;5032555;28;20033;-66
2022/01/16 08:00:43;;;;;;;21.42;4.57;;;25.30;99.90;;;;;;5031272;28;20060;-65
2022/01/16 08:03:10;;;;;;;20.88;5.20;;;25.20;99.90;;;;;;5033107;28;20044;-65
2022/01/16 08:05:37;;;;;;;18.45;5.68;;;25.10;99.90;;;;;;5027064;28;20048;-66
2022/01/16 08:08:05;;;;;;;18.95;5.30;;;25.00;99.90;;;;;;5034510;28;20052;-65
2022/01/16 08:10:32;;;;;;;18.23;5.32;;;24.90;99.90;;;;;;5035070;28;20022;-65
2022/01/16 08:13:00;;;;;;;18.08;5.32;;;24.90;99.90;;;;;;5026531;28;20480;-65
2022/01/16 08:15:27;;;;;;;21.25;5.90;;;24.90;99.90;;;;;;5026490;28;20488;-65
2022/01/16 08:17:55;;;;;;;16.95;5.88;;;25.00;99.90;;;;;;5026637;28;20037;-65
2022/01/16 08:20:22;;;;;;;16.63;5.72;;;25.00;99.90;;;;;;5033753;28;20074;-65
2022/01/16 08:22:50;;;;;;;19.15;5.07;;;25.00;99.90;;;;;;5025061;28;20028;-65
2022/01/16 08:25:17;;;;;;;25.60;6.25;;;24.90;99.90;;;;;;5026531;28;20104;-65
2022/01/16 08:27:47;;;;;;;24.65;6.10;;;24.90;99.90;;;;;;5014792;28;20447;-65
2022/01/16 08:30:16;;;;;;;21.75;6.03;;;24.90;99.90;;;;;;5031801;28;20043;-66
2022/01/16 08:32:44;;;;;;;25.80;8.10;;;24.80;99.90;;;;;;5023792;28;20030;-65
2022/01/16 08:35:12;;;;;;;23.08;7.35;;;24.70;99.90;;;;;;5017779;28;20056;-65
2022/01/16 08:37:40;;;;;;;21.88;6.18;;;24.60;99.90;;;;;;5033063;28;20079;-64
2022/01/16 08:40:08;;;;;;;20.23;5.88;;;24.60;99.90;;;;;;5015977;28;20028;-65
2022/01/16 08:42:37;;;;;;;19.40;5.68;;;24.50;99.90;;;;;;5019004;28;20036;-66
2022/01/16 08:45:05;;;;;;;16.70;4.82;;;24.50;99.90;;;;;;5015357;28;20026;-66
2022/01/16 08:47:32;;;;;;;20.10;6.32;;;24.50;99.90;;;;;;5017082;28;20041;-66
2022/01/16 08:50:02;;;;;;;18.02;6.57;;;24.40;99.90;;;;;;5032304;28;20029;-66
2022/01/16 08:52:29;;;;;;;22.08;6.82;;;24.40;99.90;;;;;;5034044;28;20026;-65
2022/01/16 08:54:57;;;;;;;20.35;5.57;;;24.30;99.90;;;;;;5030019;28;20029;-65
2022/01/16 08:57:24;;;;;;;17.25;5.15;;;24.20;99.90;;;;;;5024198;28;20021;-66
2022/01/16 08:59:52;;;;;;;22.10;5.72;;;24.20;99.90;;;;;;5024918;28;20037;-66
2022/01/16 09:02:19;;;;;;;24.65;6.85;;;24.20;99.90;;;;;;5024127;28;20391;-66
2022/01/16 09:04:46;;;;;;;15.65;5.32;;;24.20;99.90;;;;;;5020558;28;20116;-66
2022/01/16 09:07:15;;;;;;;18.35;5.20;;;24.20;99.90;;;;;;5030235;28;20490;-66
2022/01/16 09:09:43;;;;;;;19.45;5.95;;;24.10;99.90;;;;;;5022016;28;20083;-65
2022/01/16 09:12:14;;;;;;;23.65;6.53;;;24.20;99.90;;;;;;5028569;28;20131;-66
2022/01/16 09:14:41;;;;;;;17.80;5.68;;;24.20;99.90;;;;;;5034281;28;20108;-66
2022/01/16 09:17:08;;;;;;;16.90;5.57;;;24.10;99.90;;;;;;5018664;28;20092;-66
2022/01/16 09:19:36;;;;;;;21.17;6.47;;;24.00;99.90;;;;;;5024944;28;20584;-65
2022/01/16 09:22:03;;;;;;;17.45;6.47;;;24.10;99.90;;;;;;5027153;28;20026;-66
2022/01/16 09:24:31;;;;;;;17.75;5.78;;;24.10;99.90;;;;;;5019827;28;20113;-65
2022/01/16 09:26:58;;;;;;;16.27;5.63;;;24.00;99.90;;;;;;5029917;28;20026;-65
2022/01/16 09:29:25;;;;;;;17.60;5.40;;;24.10;99.90;;;;;;5025472;28;20068;-65
2022/01/16 09:31:53;;;;;;;24.23;5.15;;;24.00;99.90;;;;;;5023029;28;20098;-66
2022/01/16 09:34:21;;;;;;;18.27;5.72;;;23.90;99.90;;;;;;5030261;28;20022;-65
2022/01/16 09:36:49;;;;;;;21.98;5.88;;;24.00;99.90;;;;;;5030157;28;20021;-65
2022/01/16 09:39:16;;;;;;;20.05;6.35;;;23.90;99.90;;;;;;5022237;28;20030;-65
2022/01/16 09:41:44;;;;;;;30.83;6.03;;;23.80;99.90;;;;;;5029078;28;20032;-65
2022/01/16 09:44:11;;;;;;;21.23;5.72;;;23.80;99.90;;;;;;5025658;28;20036;-65
2022/01/16 09:46:39;;;;;;;19.63;6.05;;;23.80;99.90;;;;;;5017662;28;20040;-65
2022/01/16 09:49:07;;;;;;;25.20;6.28;;;23.80;99.90;;;;;;5012979;28;20121;-65
2022/01/16 09:51:34;;;;;;;26.20;7.78;;;23.70;99.90;;;;;;5018036;28;20036;-65
2022/01/16 09:54:02;;;;;;;20.88;5.95;;;23.70;99.90;;;;;;5025490;28;20063;-65
2022/01/16 09:56:29;;;;;;;18.05;6.50;;;23.70;99.90;;;;;;5021995;28;20030;-65
2022/01/16 09:58:57;;;;;;;25.52;5.97;;;23.60;99.90;;;;;;5013129;28;20025;-65
2022/01/16 10:01:25;;;;;;;31.83;10.70;;;23.60;99.90;;;;;;5023013;28;20025;-65
2022/01/16 10:03:52;;;;;;;28.67;9.25;;;23.50;99.90;;;;;;5019718;28;20037;-65
2022/01/16 10:06:22;;;;;;;27.70;7.85;;;23.50;99.90;;;;;;5016469;28;20386;-65
2022/01/16 10:08:54;;;;;;;33.20;13.15;;;23.50;99.90;;;;;;5027082;28;20036;-65
2022/01/16 10:11:38;;;;;;;27.23;9.80;;;23.50;99.90;;;;;;5021664;28;20025;-65
2022/01/16 10:14:21;;;;;;;17.67;5.88;;;23.50;99.90;;;;;;5015426;28;20033;-65
2022/01/16 10:16:49;;;;;;;22.80;6.50;;;23.50;99.90;;;;;;5012867;28;20033;-65
2022/01/16 10:19:35;;;;;;;22.80;7.28;;;23.60;99.90;;;;;;5019652;28;20105;-65
2022/01/16 10:22:09;;;;;;;22.63;7.28;;;23.50;99.90;;;;;;5022169;28;20509;-65
2022/01/16 10:24:39;;;;;;;30.05;6.80;;;23.40;99.90;;;;;;5024264;28;20476;-66
2022/01/16 10:27:09;;;;;;;21.52;6.50;;;23.40;99.90;;;;;;5024835;28;20041;-66
2022/01/16 10:29:40;;;;;;;21.17;6.13;;;23.40;99.90;;;;;;5025291;28;20103;-66
2022/01/16 10:32:12;;;;;;;23.45;6.65;;;23.40;99.90;;;;;;5016533;28;20034;-66
2022/01/16 10:34:40;;;;;;;24.88;7.70;;;23.40;99.90;;;;;;5026643;28;20398;-65
2022/01/16 10:37:24;;;;;;;29.35;8.60;;;23.40;99.90;;;;;;5021438;28;20033;-65
2022/01/16 10:40:14;;;;;;;30.33;6.10;;;23.40;99.90;;;;;;5026288;28;20037;-67
2022/01/16 10:42:48;;;;;;;24.98;7.20;;;23.40;99.90;;;;;;5012083;28;20022;-67
2022/01/16 10:45:21;;;;;;;24.08;6.32;;;23.40;99.90;;;;;;5021760;28;20109;-66
2022/01/16 10:47:54;;;;;;;;;;;23.40;99.90;;;;;;5023742;28;20049;-65
2022/01/16 10:50:45;;;;;;;29.02;7.10;;;23.40;99.90;;;;;;5018872;28;19910;-65
2022/01/16 10:53:21;;;;;;;27.13;7.18;;;23.30;99.90;;;;;;5012390;28;20037;-65
2022/01/16 10:55:54;;;;;;;33.13;8.23;;;23.30;99.90;;;;;;5013208;28;20034;-66
2022/01/16 10:58:26;;;;;;;40.03;9.80;;;23.30;99.90;;;;;;5021779;28;20032;-65
2022/01/16 11:01:03;;;;;;;43.95;8.57;;;23.30;99.90;;;;;;5021964;28;20030;-66
2022/01/16 11:03:40;;;;;;;27.65;6.80;;;23.30;99.90;;;;;;5023641;28;20038;-66
2022/01/16 11:06:07;;;;;;;23.60;6.85;;;23.40;99.90;;;;;;5021309;28;20478;-65
2022/01/16 11:08:35;;;;;;;33.20;6.93;;;23.30;99.90;;;;;;5011893;28;20026;-65
2022/01/16 11:11:03;;;;;;;23.77;6.07;;;23.30;99.90;;;;;;5019106;28;20028;-65
2022/01/16 11:13:35;;;;;;;26.80;6.22;;;23.40;99.90;;;;;;5014758;28;20030;-65
2022/01/16 11:16:07;;;;;;;20.02;6.65;;;23.40;99.90;;;;;;5015274;28;20044;-65
2022/01/16 11:18:47;;;;;;;25.05;6.32;;;23.40;99.90;;;;;;5029102;28;20026;-66
2022/01/16 11:21:19;;;;;;;25.70;6.68;;;23.40;99.90;;;;;;5031113;28;20037;-65
2022/01/16 11:24:00;;;;;;;20.52;6.22;;;23.30;99.90;;;;;;5018377;28;20105;-65
2022/01/16 11:26:28;;;;;;;23.05;6.13;;;23.40;99.90;;;;;;5027386;28;20028;-65
2022/01/16 11:28:56;;;;;;;21.88;6.43;;;23.30;99.90;;;;;;5015877;28;20034;-65
2022/01/16 11:31:24;;;;;;;20.17;5.65;;;23.40;99.90;;;;;;5024739;28;20489;-65
2022/01/16 11:33:52;;;;;;;22.88;6.40;;;23.40;99.90;;;;;;5011723;28;20061;-65
2022/01/16 11:36:23;;;;;;;24.73;6.47;;;23.40;99.90;;;;;;5011966;28;20053;-65
2022/01/16 11:38:59;;;;;;;19.38;5.88;;;23.40;99.90;;;;;;5027070;28;20057;-65
2022/01/16 11:41:34;;;;;;;26.45;6.32;;;23.40;99.90;;;;;;5031884;28;20393;-65
2022/01/16 11:44:07;;;;;;;23.88;6.15;;;23.50;99.90;;;;;;5022768;28;20103;-65
2022/01/16 11:46:40;;;;;;;28.58;6.88;;;23.50;99.90;;;;;;5031208;28;20084;-65
2022/01/16 11:49:17;;;;;;;19.35;5.88;;;23.50;99.90;;;;;;5027656;28;20038;-66
2022/01/16 11:51:51;;;;;;;26.90;5.80;;;23.50;99.90;;;;;;5021583;28;20036;-65
2022/01/16 11:54:28;;;;;;;26.48;5.68;;;23.50;99.90;;;;;;5034488;28;20013;-65
2022/01/16 11:56:59;;;;;;;18.65;4.93;;;23.50;99.90;;;;;;5030787;28;20502;-65
2022/01/16 11:59:28;;;;;;;26.92;6.43;;;23.40;99.90;;;;;;5018632;28;20025;-65
2022/01/16 12:01:59;;;;;;;22.38;5.80;;;23.40;99.90;;;;;;5019203;28;20030;-65
2022/01/16 12:04:38;;;;;;;21.63;6.82;;;23.50;99.90;;;;;;5015273;28;20025;-65
2022/01/16 12:07:17;;;;;;;26.10;6.65;;;23.50;99.90;;;;;;5030501;28;20371;-65
2022/01/16 12:12:14;;;;;;;23.20;5.93;;;23.50;99.90;;;;;;5032054;28;20040;-65
2022/01/16 12:14:55;;;;;;;20.70;5.85;;;23.50;99.90;;;;;;5018707;28;20091;-65
2022/01/16 12:17:43;;;;;;;23.77;5.55;;;23.50;99.90;;;;;;5027803;28;20068;-65
2022/01/16 12:20:14;;;;;;;21.50;6.07;;;23.50;99.90;;;;;;5021815;28;20021;-65
2022/01/16 12:23:04;;;;;;;24.50;6.55;;;23.50;99.90;;;;;;5014668;28;20034;-65
2022/01/16 12:25:45;;;;;;;23.17;5.72;;;23.50;99.90;;;;;;5019958;28;20045;-65
2022/01/16 12:28:14;;;;;;;25.02;9.18;;;23.50;99.90;;;;;;5014130;28;20029;-65
2022/01/16 12:31:03;;;;;;;34.20;6.65;;;23.40;99.90;;;;;;5015861;28;20029;-65
2022/01/16 12:33:43;;;;;;;27.35;7.57;;;23.40;99.90;;;;;;5024096;28;20029;-65
2022/01/16 12:36:12;;;;;;;19.50;4.80;;;23.40;99.90;;;;;;5021173;28;20026;-65
2022/01/16 12:38:50;;;;;;;19.10;5.32;;;23.50;99.90;;;;;;5023340;28;20176;-65
2022/01/16 12:41:31;;;;;;;24.35;5.95;;;23.40;99.90;;;;;;5019182;28;20026;-65
2022/01/16 12:44:17;;;;;;;22.38;5.55;;;23.40;99.90;;;;;;5014163;28;20204;-65
2022/01/16 12:46:45;;;;;;;24.70;6.65;;;23.40;99.90;;;;;;5013885;28;20040;-65
2022/01/16 12:49:30;;;;;;;20.75;4.82;;;23.40;99.90;;;;;;5029103;28;20029;-65
2022/01/16 12:51:58;;;;;;;19.52;5.55;;;23.50;99.90;;;;;;5029416;28;20430;-65
2022/01/16 12:54:30;;;;;;;31.48;6.55;;;23.40;99.90;;;;;;5033444;28;20113;-65
2022/01/16 12:57:02;;;;;;;22.73;6.43;;;23.40;99.90;;;;;;5020988;28;20022;-65
2022/01/16 12:59:35;;;;;;;31.38;6.82;;;23.40;99.90;;;;;;5029871;28;20025;-65
2022/01/16 13:02:05;;;;;;;23.45;6.32;;;23.40;99.90;;;;;;5026926;28;20018;-65
2022/01/16 13:04:44;;;;;;;25.55;7.15;;;23.40;99.90;;;;;;5013415;28;20057;-65
2022/01/16 13:07:16;;;;;;;22.15;5.75;;;23.40;99.90;;;;;;5017822;28;20030;-65
2022/01/16 13:09:43;;;;;;;29.17;6.72;;;23.40;99.90;;;;;;5013897;28;20033;-65
2022/01/16 13:12:14;;;;;;;25.35;6.88;;;23.40;99.90;;;;;;5022024;28;20114;-65
2022/01/16 13:14:43;;;;;;;27.90;5.85;;;23.40;99.90;;;;;;5029460;28;20033;-65
2022/01/16 13:17:14;;;;;;;25.40;6.47;;;23.40;99.90;;;;;;5019854;28;20505;-65
2022/01/16 13:19:51;;;;;;;28.02;6.55;;;23.40;99.90;;;;;;5030418;28;20109;-65
2022/01/16 13:22:28;;;;;;;24.50;6.55;;;23.40;99.90;;;;;;5020530;28;20034;-65
2022/01/16 13:25:04;;;;;;;27.08;6.88;;;23.30;99.90;;;;;;5015592;28;20575;-65
2022/01/16 13:27:37;;;;;;;23.73;6.55;;;23.40;99.90;;;;;;5029849;28;20006;-65
2022/01/16 13:30:23;;;;;;;24.13;5.65;;;23.30;99.90;;;;;;5030152;28;20029;-65
2022/01/16 13:32:51;;;;;;;22.30;6.43;;;23.30;99.90;;;;;;5029252;28;20046;-65
2022/01/16 13:35:26;;;;;;;26.60;7.53;;;23.30;99.90;;;;;;5028393;28;20105;-65